Time;durP1;ratioP1;P1;durP2;ratioP2;P2;SDS_P1;SDS_P2;PMS_P1;PMS_P2;Temp;Humidity;BMP_temperature;BMP_pressure;BME280_temperature;BME280_humidity;BME280_pressure;Samples;Min_cycle;Max_cycle;Signal;HPM_P1;HPM_P2
2023/02/08 00:02:00;;;;;;;;;;;25.00;99.90;;;;;;5015100;28;19922;-59
2023/02/08 00:04:27;;;;;;;;;;;25.10;99.90;;;;;;5015118;28;19917;-60
2023/02/08 00:06:53;;;;;;;;;;;25.20;99.90;;;;;;5015837;28;20093;-59
2023/02/08 00:09:20;;;;;;;;;;;25.40;99.90;;;;;;5014990;28;19953;-59
2023/02/08 00:11:47;;;;;;;;;;;25.30;99.90;;;;;;5015487;28;20357;-61
2023/02/08 00:14:13;;;;;;;;;;;25.30;99.90;;;;;;5015527;28;19917;-65
2023/02/08 00:16:40;;;;;;;;;;;25.40;99.90;;;;;;5015310;28;20395;-63
2023/02/08 00:19:07;;;;;;;;;;;25.40;99.90;;;;;;5015216;28;19945;-59
2023/02/08 00:21:33;;;;;;;;;;;25.50;99.90;;;;;;5015113;28;19913;-60
2023/02/08 00:24:00;;;;;;;;;;;25.70;99.90;;;;;;5015292;28;19927;-60
2023/02/08 00:26:26;;;;;;;;;;;25.70;99.90;;;;;;5015009;28;19914;-60
2023/02/08 00:28:53;;;;;;;;;;;25.70;99.90;;;;;;5015046;28;19909;-60
2023/02/08 00:31:20;;;;;;;;;;;25.70;99.90;;;;;;5014823;28;20349;-60
2023/02/08 00:33:46;;;;;;;;;;;25.70;99.90;;;;;;5014922;28;20394;-59
2023/02/08 00:36:13;;;;;;;;;;;25.70;99.90;;;;;;5014616;28;20292;-59
2023/02/08 00:38:40;;;;;;;;;;;25.70;99.90;;;;;;5014785;28;19909;-59
2023/02/08 00:41:06;;;;;;;;;;;25.80;99.90;;;;;;5014859;28;19925;-60
2023/02/08 00:43:33;;;;;;;;;;;25.90;99.90;;;;;;5014762;28;19925;-60
2023/02/08 00:46:00;;;;;;;;;;;25.90;99.90;;;;;;5013222;28;19909;-59
2023/02/08 00:48:27;;;;;;;;;;;26.00;99.90;;;;;;5029971;28;20012;-59
2023/02/08 00:50:58;;;;;;;;;;;26.00;99.90;;;;;;5014735;28;19909;-59
2023/02/08 00:53:25;;;;;;;;;;;25.80;99.90;;;;;;5014315;28;19993;-60
2023/02/08 00:55:52;;;;;;;;;;;25.70;99.90;;;;;;5014245;28;19948;-59
2023/02/08 00:58:19;;;;;;;;;;;25.60;99.90;;;;;;5014598;28;19913;-60
2023/02/08 01:00:45;;;;;;;;;;;25.60;99.90;;;;;;5014557;28;19920;-59
2023/02/08 01:03:12;;;;;;;;;;;25.70;99.90;;;;;;5014329;28;19944;-59
2023/02/08 01:05:39;;;;;;;;;;;25.70;99.90;;;;;;5014048;28;19920;-60
2023/02/08 01:08:05;;;;;;;;;;;25.60;99.90;;;;;;5014340;28;19944;-60
2023/02/08 01:10:32;;;;;;;;;;;25.40;99.90;;;;;;5014062;28;19910;-59
2023/02/08 01:13:00;;;;;;;;;;;25.40;99.90;;;;;;5013966;28;19928;-60
2023/02/08 01:15:27;;;;;;;;;;;25.40;99.90;;;;;;5013715;28;19910;-59
2023/02/08 01:17:54;;;;;;;;;;;25.50;99.90;;;;;;5014028;28;20436;-60
2023/02/08 01:20:21;;;;;;;;;;;25.60;99.90;;;;;;5013880;28;19916;-59
2023/02/08 01:22:48;;;;;;;;;;;25.60;99.90;;;;;;5013824;28;19980;-59
2023/02/08 01:25:14;;;;;;;;;;;25.60;99.90;;;;;;5013286;28;19917;-59
2023/02/08 01:27:42;;;;;;;;;;;25.60;99.90;;;;;;5014038;28;20275;-59
2023/02/08 01:30:09;;;;;;;;;;;25.90;99.90;;;;;;5013771;28;20277;-59
2023/02/08 01:32:36;;;;;;;;;;;26.10;99.90;;;;;;5013832;28;20004;-64
2023/02/08 01:35:02;;;;;;;;;;;26.40;99.90;;;;;;5013568;28;20257;-59
2023/02/08 01:37:29;;;;;;;;;;;26.60;99.90;;;;;;5013474;28;19913;-59
2023/02/08 01:39:55;;;;;;;;;;;26.30;99.90;;;;;;5013452;28;20200;-59
2023/02/08 01:42:22;;;;;;;;;;;26.30;99.90;;;;;;5013621;28;20020;-59
2023/02/08 01:45:06;;;;;;;;;;;26.50;99.90;;;;;;5013188;28;20000;-60
2023/02/08 01:47:33;;;;;;;;;;;27.00;99.90;;;;;;5013195;28;19913;-59
2023/02/08 01:50:00;;;;;;;;;;;27.50;99.90;;;;;;5013461;28;19910;-59
2023/02/08 01:52:27;;;;;;;;;;;27.50;99.90;;;;;;5013493;28;19909;-59
2023/02/08 01:54:57;;;;;;;;;;;27.60;99.90;;;;;;5013039;28;19909;-60
2023/02/08 01:57:24;;;;;;;;;;;28.00;99.90;;;;;;5013033;28;19914;-59
2023/02/08 02:00:00;;;;;;;;;;;28.10;99.90;;;;;;5013574;28;20387;-59
2023/02/08 02:02:27;;;;;;;;;;;27.80;99.90;;;;;;5012899;28;20339;-60
2023/02/08 02:04:54;;;;;;;;;;;27.30;99.90;;;;;;5012775;28;19920;-62
2023/02/08 02:07:22;;;;;;;;;;;27.00;99.90;;;;;;5012843;28;19916;-59
2023/02/08 02:09:58;;;;;;;;;;;26.70;99.90;;;;;;5012792;28;20418;-59
2023/02/08 02:12:25;;;;;;;;;;;26.50;99.90;;;;;;5013141;28;19913;-59
2023/02/08 02:14:51;;;;;;;;;;;26.30;99.90;;;;;;5012683;28;20261;-59
2023/02/08 02:17:19;;;;;;;;;;;26.20;99.90;;;;;;5012633;28;19918;-59
2023/02/08 02:19:46;;;;;;;;;;;26.20;99.90;;;;;;5012749;28;19914;-59
2023/02/08 02:22:36;;;;;;;;;;;26.20;99.90;;;;;;5012905;28;19921;-59
2023/02/08 02:25:11;;;;;;;;;;;26.10;99.90;;;;;;5012445;28;19920;-59
2023/02/08 02:27:50;;;;;;;;;;;26.00;99.90;;;;;;5013134;28;20380;-60
2023/02/08 02:30:23;;;;;;;;;;;26.00;99.90;;;;;;5012902;28;19909;-64
2023/02/08 02:32:58;;;;;;;;;;;25.80;99.90;;;;;;5012667;28;19956;-65
2023/02/08 02:35:25;;;;;;;;;;;25.70;99.90;;;;;;5012109;28;19910;-59
2023/02/08 02:38:14;;;;;;;;;;;25.70;99.90;;;;;;5012718;28;19964;-60
2023/02/08 02:40:41;;;;;;;;;;;25.70;99.90;;;;;;5012478;28;19918;-62
2023/02/08 02:45:57;;;;;;;;;;;25.70;99.90;;;;;;5012353;28;20411;-59
2023/02/08 02:48:36;;;;;;;;;;;25.70;99.90;;;;;;5012722;28;19910;-59
2023/02/08 02:51:07;;;;;;;;;;;25.70;99.90;;;;;;5012660;28;19916;-65
2023/02/08 02:53:40;;;;;;;;;;;25.80;99.90;;;;;;5012833;28;19931;-60
2023/02/08 02:56:18;;;;;;;;;;;25.90;99.90;;;;;;5012412;28;19917;-59
2023/02/08 02:58:45;;;;;;;;;;;26.00;99.90;;;;;;5013016;28;19920;-61
2023/02/08 03:01:12;;;;;;;;;;;26.10;99.90;;;;;;5012384;28;19925;-60
2023/02/08 03:03:39;;;;;;;;;;;26.10;99.90;;;;;;5012711;28;19948;-60
2023/02/08 03:06:09;;;;;;;;;;;26.30;99.90;;;;;;5012405;28;20436;-60
2023/02/08 03:08:54;;;;;;;;;;;26.30;99.90;;;;;;5012254;28;20423;-60
2023/02/08 03:11:23;;;;;;;;;;;26.20;99.90;;;;;;5013329;28;19921;-60
2023/02/08 03:14:08;;;;;;;;;;;26.40;99.90;;;;;;5017002;28;19909;-62
2023/02/08 03:16:53;;;;;;;;;;;26.50;99.90;;;;;;5014863;28;20000;-62
2023/02/08 03:19:30;;;;;;;;;;;26.50;99.90;;;;;;5015187;28;20000;-65
2023/02/08 03:22:00;;;;;;;;;;;26.50;99.90;;;;;;5015239;28;19928;-61
2023/02/08 03:24:39;;;;;;;;;;;26.60;99.90;;;;;;5014561;28;19910;-64
2023/02/08 03:27:06;;;;;;;;;;;26.80;99.90;;;;;;5015785;28;19920;-62
2023/02/08 03:29:51;;;;;;;;;;;26.90;99.90;;;;;;5016590;28;19977;-63
2023/02/08 03:32:38;;;;;;;;;;;26.80;99.90;;;;;;5014228;28;19910;-64
2023/02/08 03:35:04;;;;;;;;;;;26.80;99.90;;;;;;5005181;28;20400;-65
2023/02/08 03:37:43;;;;;;;;;;;26.80;99.90;;;;;;5012245;28;19917;-64
2023/02/08 03:40:13;;;;;;;;;;;26.80;99.90;;;;;;5012455;28;19913;-72
2023/02/08 03:42:40;;;;;;;;;;;26.80;99.90;;;;;;5012599;28;19925;-67
2023/02/08 03:45:21;;;;;;;;;;;26.70;99.90;;;;;;5012610;28;19956;-60
2023/02/08 03:47:49;;;;;;;;;;;26.60;99.90;;;;;;5012697;28;19909;-67
2023/02/08 03:50:17;;;;;;;;;;;26.50;99.90;;;;;;5012303;28;19910;-69
2023/02/08 03:52:47;;;;;;;;;;;26.40;99.90;;;;;;5012060;28;19920;-66
2023/02/08 03:55:16;;;;;;;;;;;26.40;99.90;;;;;;5011345;28;19914;-63
2023/02/08 03:57:52;;;;;;;;;;;26.40;99.90;;;;;;5011947;28;20015;-63
2023/02/08 04:00:20;;;;;;;;;;;26.40;99.90;;;;;;5012869;28;20280;-61
2023/02/08 04:02:58;;;;;;;;;;;26.40;99.90;;;;;;5011891;28;19932;-62
2023/02/08 04:05:25;;;;;;;;;;;26.40;99.90;;;;;;5011829;28;19909;-70
2023/02/08 04:07:52;;;;;;;;;;;26.20;99.90;;;;;;5012162;28;19949;-70
2023/02/08 04:10:19;;;;;;;;;;;26.00;99.90;;;;;;5012086;28;19913;-60
2023/02/08 04:12:46;;;;;;;;;;;26.00;99.90;;;;;;5012168;28;19963;-66
2023/02/08 04:15:13;;;;;;;;;;;26.30;99.90;;;;;;5011707;28;20377;-65
2023/02/08 04:17:39;;;;;;;;;;;26.60;99.90;;;;;;5012072;28;20316;-69
2023/02/08 04:20:07;;;;;;;;;;;26.70;99.90;;;;;;5013236;28;20000;-70
2023/02/08 04:22:33;;;;;;;;;;;26.50;99.90;;;;;;5015345;28;19921;-67
2023/02/08 04:25:00;;;;;;;;;;;26.50;99.90;;;;;;5015262;28;20006;-66
2023/02/08 04:27:27;;;;;;;;;;;26.60;99.90;;;;;;5015452;28;19909;-66
2023/02/08 04:29:53;;;;;;;;;;;26.80;99.90;;;;;;5015526;28;20288;-70
2023/02/08 04:32:20;;;;;;;;;;;26.70;99.90;;;;;;5015337;28;19910;-70
2023/02/08 04:34:46;;;;;;;;;;;26.60;99.90;;;;;;5014992;28;19918;-66
2023/02/08 04:37:13;;;;;;;;;;;26.60;99.90;;;;;;5014960;28;19910;-59
2023/02/08 04:39:40;;;;;;;;;;;26.70;99.90;;;;;;5015250;28;19948;-63
2023/02/08 04:42:07;;;;;;;;;;;26.50;99.90;;;;;;5015332;28;19924;-73
2023/02/08 04:44:34;;;;;;;;;;;26.40;99.90;;;;;;5015092;28;20266;-69
2023/02/08 04:47:01;;;;;;;;;;;26.50;99.90;;;;;;5014912;28;19920;-63
2023/02/08 04:49:27;;;;;;;;;;;26.40;99.90;;;;;;5014945;28;19940;-72
2023/02/08 04:51:54;;;;;;;;;;;26.40;99.90;;;;;;5015041;28;19949;-69
2023/02/08 04:54:21;;;;;;;;;;;26.30;99.90;;;;;;5014411;28;19913;-69
2023/02/08 04:56:47;;;;;;;;;;;26.10;99.90;;;;;;5015345;28;19909;-67
2023/02/08 04:59:14;;;;;;;;;;;26.00;99.90;;;;;;5015020;28;19909;-71
2023/02/08 05:01:41;;;;;;;;;;;25.80;99.90;;;;;;5014787;28;20020;-69
2023/02/08 05:04:08;;;;;;;;;;;25.70;99.90;;;;;;5014467;28;20680;-63
2023/02/08 05:06:35;;;;;;;;;;;25.70;99.90;;;;;;5014683;28;20052;-64
2023/02/08 05:09:01;;;;;;;;;;;25.60;99.90;;;;;;5014947;28;19910;-64
2023/02/08 05:11:28;;;;;;;;;;;25.60;99.90;;;;;;5013957;28;19955;-72
2023/02/08 05:13:55;;;;;;;;;;;25.60;99.90;;;;;;5013798;28;19918;-63
2023/02/08 05:16:21;;;;;;;;;;;25.70;99.90;;;;;;5013943;28;20381;-68
2023/02/08 05:18:48;;;;;;;;;;;25.70;99.90;;;;;;5013993;28;19909;-70
2023/02/08 05:21:15;;;;;;;;;;;25.70;99.90;;;;;;5013819;28;19932;-75
2023/02/08 05:23:41;;;;;;;;;;;25.80;99.90;;;;;;5014108;28;19914;-72
2023/02/08 05:26:09;;;;;;;;;;;25.70;99.90;;;;;;5013756;28;19909;-66
2023/02/08 05:28:36;;;;;;;;;;;25.70;99.90;;;;;;5013880;28;19917;-74
2023/02/08 05:31:13;;;;;;;;;;;25.60;99.90;;;;;;5013595;28;20300;-63
2023/02/08 05:33:40;;;;;;;;;;;25.50;99.90;;;;;;5013368;28;20280;-72
2023/02/08 05:36:07;;;;;;;;;;;25.50;99.90;;;;;;5013059;28;19910;-73
2023/02/08 05:38:34;;;;;;;;;;;25.30;99.90;;;;;;5013569;28;20426;-72
2023/02/08 05:41:01;;;;;;;;;;;25.20;99.90;;;;;;5013299;28;20016;-76
2023/02/08 05:43:27;;;;;;;;;;;25.20;99.90;;;;;;5013336;28;19924;-63
2023/02/08 05:45:54;;;;;;;;;;;25.30;99.90;;;;;;5012973;28;19981;-73
2023/02/08 05:48:20;;;;;;;;;;;25.40;99.90;;;;;;5013251;28;20004;-75
2023/02/08 05:50:47;;;;;;;;;;;25.50;99.90;;;;;;5012263;28;20000;-70
2023/02/08 05:53:14;;;;;;;;;;;25.40;99.90;;;;;;5010845;28;19921;-75
2023/02/08 05:55:43;;;;;;;;;;;25.50;99.90;;;;;;5011037;28;19919;-66
2023/02/08 05:58:10;;;;;;;;;;;25.50;99.90;;;;;;5011410;28;19914;-75
2023/02/08 06:00:37;;;;;;;;;;;25.50;99.90;;;;;;5011190;28;19955;-74
2023/02/08 06:03:03;;;;;;;;;;;25.50;99.90;;;;;;5011143;28;20431;-71
2023/02/08 06:05:30;;;;;;;;;;;25.70;99.90;;;;;;5010442;28;19913;-71
2023/02/08 06:07:57;;;;;;;;;;;25.70;99.90;;;;;;5010785;28;19910;-65
2023/02/08 06:10:23;;;;;;;;;;;25.50;99.90;;;;;;5010957;28;19949;-75
2023/02/08 06:12:50;;;;;;;;;;;25.40;99.90;;;;;;5011086;28;19920;-75
2023/02/08 06:15:17;;;;;;;;;;;25.50;99.90;;;;;;5010257;28;19914;-64
2023/02/08 06:17:43;;;;;;;;;;;25.70;99.90;;;;;;5010680;28;19979;-72
2023/02/08 06:20:10;;;;;;;;;;;25.60;99.90;;;;;;5010644;28;19914;-74
2023/02/08 06:22:37;;;;;;;;;;;25.60;99.90;;;;;;5025824;28;19921;-76
2023/02/08 06:25:04;;;;;;;;;;;25.50;99.90;;;;;;5010458;28;19989;-74
2023/02/08 06:27:30;;;;;;;;;;;25.40;99.90;;;;;;5010552;28;20372;-66
2023/02/08 06:29:57;;;;;;;;;;;25.00;99.90;;;;;;5010304;28;19909;-72
2023/02/08 06:32:24;;;;;;;;;;;24.30;99.90;;;;;;5010486;28;19913;-71
2023/02/08 06:34:51;;;;;;;;;;;23.70;99.90;;;;;;5010443;28;20418;-66
2023/02/08 06:37:18;;;;;;;;;;;23.60;99.90;;;;;;5010408;28;19917;-66
2023/02/08 06:39:44;;;;;;;;;;;23.40;99.90;;;;;;5010544;28;20447;-67
2023/02/08 06:42:11;;;;;;;;;;;23.00;99.90;;;;;;5010699;28;20513;-72
2023/02/08 06:44:38;;;;;;;;;;;23.00;99.90;;;;;;5009192;28;20008;-72
2023/02/08 06:47:04;;;;;;;;;;;23.00;99.90;;;;;;5010967;28;19952;-67
2023/02/08 06:49:31;;;;;;;;;;;23.10;99.90;;;;;;5010857;28;19916;-67
2023/02/08 06:51:58;;;;;;;;;;;23.10;99.90;;;;;;5010874;28;19913;-74
2023/02/08 06:54:24;;;;;;;;;;;23.20;99.90;;;;;;5009135;28;19914;-67
2023/02/08 06:56:51;;;;;;;;;;;22.90;99.90;;;;;;4991132;28;19920;-62
2023/02/08 06:59:18;;;;;;;;;;;23.10;99.90;;;;;;4990653;28;20388;-71
2023/02/08 07:01:44;;;;;;;;;;;22.70;99.90;;;;;;4990794;28;19996;-72
2023/02/08 07:04:11;;;;;;;;;;;22.50;99.90;;;;;;4990083;28;19957;-66
2023/02/08 07:06:38;;;;;;;;;;;22.60;99.90;;;;;;4990676;28;19948;-63
2023/02/08 07:09:04;;;;;;;;;;;22.40;99.90;;;;;;4990568;28;20388;-66
2023/02/08 07:11:31;;;;;;;;;;;22.50;99.90;;;;;;5009397;28;19909;-64
2023/02/08 07:13:58;;;;;;;;;;;22.10;99.90;;;;;;5010028;28;19913;-67
2023/02/08 07:16:24;;;;;;;;;;;22.20;99.90;;;;;;5010525;28;19913;-73
2023/02/08 07:18:51;;;;;;;;;;;22.10;99.90;;;;;;5010266;28;20000;-65
2023/02/08 07:21:17;;;;;;;;;;;22.20;99.90;;;;;;5009619;28;20466;-67
2023/02/08 07:23:44;;;;;;;;;;;22.10;99.90;;;;;;5010236;28;19920;-76
2023/02/08 07:26:13;;;;;;;;;;;22.20;99.90;;;;;;5010451;28;20252;-68
2023/02/08 07:28:40;;;;;;;;;;;22.20;99.90;;;;;;5010451;28;19956;-74
2023/02/08 07:31:07;;;;;;;;;;;22.30;99.90;;;;;;5010623;28;20007;-74
2023/02/08 07:33:38;;;;;;;;;;;22.30;99.90;;;;;;5010974;28;19913;-73
2023/02/08 07:36:06;;;;;;;;;;;22.30;99.90;;;;;;5011552;28;19909;-67
2023/02/08 07:38:33;;;;;;;;;;;22.40;99.90;;;;;;5010039;28;19909;-75
2023/02/08 07:41:09;;;;;;;;;;;22.40;99.90;;;;;;5010316;28;19921;-70
2023/02/08 07:43:36;;;;;;;;;;;22.50;99.90;;;;;;5009106;28;20388;-73
2023/02/08 07:46:13;;;;;;;;;;;22.60;99.90;;;;;;5010070;28;20003;-69
2023/02/08 07:48:40;;;;;;;;;;;22.60;99.90;;;;;;5009116;28;19917;-75
2023/02/08 07:51:07;;;;;;;;;;;22.60;99.90;;;;;;5009539;28;19913;-68
2023/02/08 07:53:34;;;;;;;;;;;22.60;99.90;;;;;;5009422;28;20349;-69
2023/02/08 07:56:01;;;;;;;;;;;22.60;99.90;;;;;;5012327;28;19913;-75
2023/02/08 07:58:28;;;;;;;;;;;22.60;99.90;;;;;;5013446;28;20372;-71
2023/02/08 08:00:54;;;;;;;;;;;22.60;99.90;;;;;;5012821;28;20004;-75
2023/02/08 08:03:21;;;;;;;;;;;22.60;99.90;;;;;;5012930;28;20012;-71
2023/02/08 08:05:48;;;;;;;;;;;22.60;99.90;;;;;;5013028;28;20019;-66
2023/02/08 08:08:15;;;;;;;;;;;22.70;99.90;;;;;;5013268;28;20280;-69
2023/02/08 08:10:42;;;;;;;;;;;22.70;99.90;;;;;;5013927;28;20016;-75
2023/02/08 08:13:08;;;;;;;;;;;22.70;99.90;;;;;;5015206;28;19921;-72
2023/02/08 08:15:35;;;;;;;;;;;22.70;99.90;;;;;;5014473;28;19910;-72
2023/02/08 08:18:02;;;;;;;;;;;22.70;99.90;;;;;;5014619;28;19996;-69
2023/02/08 08:20:28;;;;;;;;;;;22.70;99.90;;;;;;5014994;28;19910;-66
2023/02/08 08:22:55;;;;;;;;;;;22.60;99.90;;;;;;5014600;28;19972;-75
2023/02/08 08:25:21;;;;;;;;;;;22.70;99.90;;;;;;5014389;28;19913;-74
2023/02/08 08:27:48;;;;;;;;;;;22.80;99.90;;;;;;5014737;28;20023;-75
2023/02/08 08:30:16;;;;;;;;;;;22.70;99.90;;;;;;5014697;28;20005;-61
2023/02/08 08:32:42;;;;;;;;;;;22.70;99.90;;;;;;5014159;28;20194;-69
2023/02/08 08:35:09;;;;;;;;;;;22.80;99.90;;;;;;5014562;28;19909;-75
2023/02/08 08:37:36;;;;;;;;;;;22.80;99.90;;;;;;5014344;28;19925;-65
2023/02/08 08:40:05;;;;;;;;;;;22.60;99.90;;;;;;5014624;28;19941;-61
2023/02/08 08:42:32;;;;;;;;;;;22.50;99.90;;;;;;5014453;28;19968;-65
2023/02/08 08:44:59;;;;;;;;;;;22.20;99.90;;;;;;5014212;28;19913;-62
2023/02/08 08:47:26;;;;;;;;;;;22.10;99.90;;;;;;5013674;28;19913;-67
2023/02/08 08:49:52;;;;;;;;;;;22.00;99.90;;;;;;5014452;28;19913;-67
2023/02/08 08:52:19;;;;;;;;;;;21.80;99.90;;;;;;5014249;28;19948;-72
2023/02/08 08:54:46;;;;;;;;;;;21.80;99.90;;;;;;5014092;28;19948;-65
2023/02/08 08:57:12;;;;;;;;;;;21.80;99.90;;;;;;5014140;28;19913;-61
2023/02/08 08:59:39;;;;;;;;;;;21.70;99.90;;;;;;5014266;28;19914;-65
2023/02/08 09:02:06;;;;;;;;;;;21.80;99.90;;;;;;5013356;28;19921;-65
2023/02/08 09:04:33;;;;;;;;;;;21.80;99.90;;;;;;5013888;28;19920;-65
2023/02/08 09:07:00;;;;;;;;;;;21.80;99.90;;;;;;5012832;28;20269;-65
2023/02/08 09:09:26;;;;;;;;;;;21.80;99.90;;;;;;5013812;28;20363;-65
2023/02/08 09:11:53;;;;;;;;;;;22.00;99.90;;;;;;5013582;28;20008;-71
2023/02/08 09:14:19;;;;;;;;;;;21.90;99.90;;;;;;5013675;28;19996;-67
2023/02/08 09:16:47;;;;;;;;;;;21.90;99.90;;;;;;4996254;28;19917;-67
2023/02/08 09:19:15;;;;;;;;;;;22.00;99.90;;;;;;5013565;28;19917;-67
2023/02/08 09:21:42;;;;;;;;;;;22.10;99.90;;;;;;5013907;28;19936;-71
2023/02/08 09:24:08;;;;;;;;;;;22.00;99.90;;;;;;5013694;28;19918;-67
2023/02/08 09:26:35;;;;;;;;;;;22.10;99.90;;;;;;5014185;28;19914;-62
2023/02/08 09:29:02;;;;;;;;;;;22.20;99.90;;;;;;5014057;28;19909;-65
2023/02/08 09:31:29;;;;;;;;;;;22.20;99.90;;;;;;5014021;28;19941;-64
2023/02/08 09:33:58;;;;;;;;;;;22.20;99.90;;;;;;5013922;28;19916;-67
2023/02/08 09:36:25;;;;;;;;;;;22.20;99.90;;;;;;5013637;28;20000;-62
2023/02/08 09:39:00;;;;;;;;;;;22.20;99.90;;;;;;5013959;28;19910;-68
2023/02/08 09:41:27;;;;;;;;;;;22.20;99.90;;;;;;5013544;28;19914;-71
2023/02/08 09:44:11;;;;;;;;;;;22.30;99.90;;;;;;5013498;28;20361;-70
2023/02/08 09:46:40;;;;;;;;;;;22.20;99.90;;;;;;5013707;28;19914;-66
2023/02/08 09:49:10;;;;;;;;;;;22.30;99.90;;;;;;5013609;28;19914;-66
2023/02/08 09:51:39;;;;;;;;;;;22.30;99.90;;;;;;5013289;28;20276;-65
2023/02/08 09:54:19;;;;;;;;;;;22.30;99.90;;;;;;5013152;28;19909;-66
2023/02/08 09:56:46;;;;;;;;;;;22.30;99.90;;;;;;5013421;28;19941;-62
2023/02/08 09:59:15;;;;;;;;;;;22.30;99.90;;;;;;5013189;28;19914;-65
2023/02/08 10:01:42;;;;;;;;;;;22.30;99.90;;;;;;5013171;28;20359;-64
2023/02/08 10:04:17;;;;;;;;;;;22.30;99.90;;;;;;5013052;28;20024;-64
2023/02/08 10:06:44;;;;;;;;;;;22.30;99.90;;;;;;5013225;28;19914;-63
2023/02/08 10:09:13;;;;;;;;;;;22.30;99.90;;;;;;5013258;28;19920;-61
2023/02/08 10:11:45;;;;;;;;;;;22.40;99.90;;;;;;5013219;28;20400;-65
2023/02/08 10:14:30;;;;;;;;;;;22.30;99.90;;;;;;5012962;28;19943;-62
2023/02/08 10:17:09;;;;;;;;;;;22.30;99.90;;;;;;5013246;28;19913;-60
2023/02/08 10:19:51;;;;;;;;;;;22.40;99.90;;;;;;5012883;28;19917;-61
2023/02/08 10:22:36;;;;;;;;;;;22.30;99.90;;;;;;5012861;28;19921;-63
2023/02/08 10:25:21;;;;;;;;;;;22.40;99.90;;;;;;5012782;28;19941;-60
2023/02/08 10:28:15;;;;;;;;;;;22.40;99.90;;;;;;5013037;28;19914;-60
2023/02/08 10:30:57;;;;;;;;;;;22.40;99.90;;;;;;5012072;28;20467;-60
2023/02/08 10:33:31;;;;;;;;;;;22.40;99.90;;;;;;5003039;28;19914;-76
2023/02/08 10:35:58;;;;;;;;;;;22.50;99.90;;;;;;5001764;28;19921;-66
2023/02/08 10:38:24;;;;;;;;;;;22.50;99.90;;;;;;5004203;28;20668;-61
2023/02/08 10:40:54;;;;;;;;;;;22.60;99.90;;;;;;5004533;28;19918;-60
2023/02/08 10:43:21;;;;;;;;;;;22.70;99.90;;;;;;5004017;28;19944;-61
2023/02/08 10:45:53;;;;;;;;;;;22.60;99.90;;;;;;5004405;28;19920;-60
2023/02/08 10:48:40;;;;;;;;;;;22.70;99.90;;;;;;4985932;28;20000;-60
2023/02/08 10:51:10;;;;;;;;;;;22.80;99.90;;;;;;5004106;28;19968;-64
2023/02/08 10:53:36;;;;;;;;;;;22.70;99.90;;;;;;5002805;28;20624;-60
2023/02/08 10:56:04;;;;;;;;;;;22.80;99.90;;;;;;5004335;28;19920;-63
2023/02/08 10:58:30;;;;;;;;;;;22.80;99.90;;;;;;5004191;28;19968;-60
2023/02/08 11:00:58;;;;;;;;;;;22.80;99.90;;;;;;5004349;28;19914;-61
2023/02/08 11:03:26;;;;;;;;;;;22.80;99.90;;;;;;5003687;28;19944;-61
2023/02/08 11:05:52;;;;;;;;;;;22.80;99.90;;;;;;5003928;28;19914;-61
2023/02/08 11:08:21;;;;;;;;;;;22.80;99.90;;;;;;5004078;28;19918;-60
2023/02/08 11:11:03;;;;;;;;;;;22.80;99.90;;;;;;5004007;28;19960;-60
2023/02/08 11:13:35;;;;;;;;;;;22.80;99.90;;;;;;5001878;28;19961;-64
2023/02/08 11:16:03;;;;;;;;;;;22.80;99.90;;;;;;5003311;28;19917;-64
2023/02/08 11:18:46;;;;;;;;;;;22.80;99.90;;;;;;5003432;28;19948;-64
2023/02/08 11:21:33;;;;;;;;;;;22.80;99.90;;;;;;5002965;28;20004;-66
2023/02/08 11:24:04;;;;;;;;;;;22.80;99.90;;;;;;5003082;28;20372;-66
2023/02/08 11:26:30;;;;;;;;;;;22.70;99.90;;;;;;5003302;28;20016;-64
2023/02/08 11:29:01;;;;;;;;;;;22.80;99.90;;;;;;5003698;28;19914;-66
2023/02/08 11:31:28;;;;;;;;;;;22.80;99.90;;;;;;5008820;28;19960;-60
2023/02/08 11:33:59;;;;;;;;;;;22.80;99.90;;;;;;5009466;28;19917;-60
2023/02/08 11:36:27;;;;;;;;;;;22.80;99.90;;;;;;5010418;28;19968;-59
2023/02/08 11:38:54;;;;;;;;;;;22.80;99.90;;;;;;5010103;28;20032;-64
2023/02/08 11:41:22;;;;;;;;;;;22.80;99.90;;;;;;5010024;28;20372;-59
2023/02/08 11:44:09;;;;;;;;;;;22.70;99.90;;;;;;5010164;28;19926;-63
2023/02/08 11:46:38;;;;;;;;;;;22.70;99.90;;;;;;5010188;28;19913;-60
2023/02/08 11:49:05;;;;;;;;;;;22.70;99.90;;;;;;5011102;28;20312;-60
2023/02/08 11:51:33;;;;;;;;;;;22.70;99.90;;;;;;5018322;28;20273;-60
2023/02/08 11:54:01;;;;;;;;;;;22.70;99.90;;;;;;5018063;28;19916;-61
2023/02/08 11:56:29;;;;;;;;;;;22.70;99.90;;;;;;5018468;28;19910;-59
2023/02/08 11:59:01;;;;;;;;;;;22.60;99.90;;;;;;5018321;28;19909;-59
2023/02/08 12:01:29;;;;;;;;;;;22.60;99.90;;;;;;5017974;28;20319;-60
2023/02/08 12:03:57;;;;;;;;;;;22.60;99.90;;;;;;5018267;28;19987;-60
2023/02/08 12:06:30;;;;;;;;;;;22.70;99.90;;;;;;5018225;28;19936;-60
2023/02/08 12:09:08;;;;;;;;;;;22.70;99.90;;;;;;5018398;28;19909;-67
2023/02/08 12:12:01;;;;;;;;;;;22.70;99.90;;;;;;5018021;28;19910;-64
2023/02/08 12:14:46;;;;;;;;;;;22.80;99.90;;;;;;5015181;28;19914;-60
2023/02/08 12:17:23;;;;;;;;;;;22.80;99.90;;;;;;5018228;28;20420;-63
2023/02/08 12:20:08;;;;;;;;;;;22.80;99.90;;;;;;5018560;28;19963;-65
2023/02/08 12:22:38;;;;;;;;;;;22.80;99.90;;;;;;5018365;28;19965;-60
2023/02/08 12:25:16;;;;;;;;;;;22.70;99.90;;;;;;5017909;28;19917;-61
2023/02/08 12:27:49;;;;;;;;;;;22.80;99.90;;;;;;5018259;28;19964;-60
2023/02/08 12:30:18;;;;;;;;;;;22.80;99.90;;;;;;5018134;28;20000;-65
2023/02/08 12:32:55;;;;;;;;;;;22.80;99.90;;;;;;5018408;28;19948;-60
2023/02/08 12:35:24;;;;;;;;;;;22.70;99.90;;;;;;5017382;28;19940;-60
2023/02/08 12:40:54;;;;;;;;;;;22.70;99.90;;;;;;5017856;28;19984;-63
2023/02/08 12:43:20;;;;;;;;;;;22.70;99.90;;;;;;5014448;28;19921;-60
2023/02/08 12:45:54;;;;;;;;;;;22.70;99.90;;;;;;5014998;28;20308;-60
2023/02/08 12:48:21;;;;;;;;;;;22.70;99.90;;;;;;5014953;28;19909;-61
2023/02/08 12:50:53;;;;;;;;;;;22.70;99.90;;;;;;5014791;28;20384;-60
2023/02/08 12:53:24;;;;;;;;;;;22.70;99.90;;;;;;5014295;28;19985;-60
2023/02/08 12:55:52;;;;;;;;;;;22.70;99.90;;;;;;5014811;28;19917;-60
2023/02/08 12:58:27;;;;;;;;;;;22.70;99.90;;;;;;5014805;28;19937;-61
2023/02/08 13:00:54;;;;;;;;;;;22.80;99.90;;;;;;5014527;28;20357;-62
2023/02/08 13:03:39;;;;;;;;;;;22.80;99.90;;;;;;5013836;28;19925;-60
2023/02/08 13:06:06;;;;;;;;;;;22.80;99.90;;;;;;5014410;28;19909;-63
2023/02/08 13:08:39;;;;;;;;;;;22.80;99.90;;;;;;5014485;28;19996;-65
2023/02/08 13:11:35;;;;;;;;;;;22.80;99.90;;;;;;5014304;28;19945;-60
2023/02/08 13:14:24;;;;;;;;;;;22.70;99.90;;;;;;5005125;28;19941;-60
2023/02/08 13:16:54;;;;;;;;;;;22.70;99.90;;;;;;4995185;28;19920;-60
2023/02/08 13:19:25;;;;;;;;;;;22.70;99.90;;;;;;5013820;28;19917;-64
2023/02/08 13:21:53;;;;;;;;;;;22.80;99.90;;;;;;5014217;28;20591;-60
2023/02/08 13:24:28;;;;;;;;;;;22.70;99.90;;;;;;5013945;28;19920;-60
2023/02/08 13:26:54;;;;;;;;;;;22.70;99.90;;;;;;5014327;28;20391;-60
2023/02/08 13:29:22;;;;;;;;;;;22.70;99.90;;;;;;5013883;28;19924;-60
2023/02/08 13:31:56;;;;;;;;;;;22.70;99.90;;;;;;5014023;28;20008;-64
2023/02/08 13:34:38;;;;;;;;;;;22.70;99.90;;;;;;5013525;28;19996;-60
2023/02/08 13:37:24;;;;;;;;;;;22.70;99.90;;;;;;5014150;28;19910;-60
2023/02/08 13:39:58;;;;;;;;;;;22.70;99.90;;;;;;5013715;28;20291;-70
2023/02/08 13:42:30;;;;;;;;;;;22.70;99.90;;;;;;5013815;28;19921;-60
2023/02/08 13:44:57;;;;;;;;;;;22.70;99.90;;;;;;5013566;28;19909;-60
2023/02/08 13:47:26;;;;;;;;;;;22.70;99.90;;;;;;5013533;28;19921;-62
2023/02/08 13:49:55;;;;;;;;;;;22.70;99.90;;;;;;5013602;28;19909;-60
2023/02/08 13:52:37;;;;;;;;;;;22.80;99.90;;;;;;5013292;28;19960;-60
2023/02/08 13:55:34;;;;;;;;;;;22.80;99.90;;;;;;5013406;28;20368;-60
2023/02/08 13:58:13;;;;;;;;;;;22.80;99.90;;;;;;4999042;28;20322;-60
2023/02/08 14:00:59;;;;;;;;;;;22.80;99.90;;;;;;5013883;28;19917;-60
2023/02/08 14:03:27;;;;;;;;;;;22.70;99.90;;;;;;5013070;28;19991;-61
2023/02/08 14:05:58;;;;;;;;;;;22.60;99.90;;;;;;5013258;28;19913;-61
2023/02/08 14:08:34;;;;;;;;;;;22.40;99.90;;;;;;5013571;28;20363;-60
2023/02/08 14:11:11;;;;;;;;;;;22.10;99.90;;;;;;5013227;28;19910;-60
2023/02/08 14:14:06;;;;;;;;;;;21.80;99.90;;;;;;5013220;28;19913;-64
2023/02/08 14:16:37;;;;;;;;;;;21.40;99.90;;;;;;5004386;28;19909;-62
2023/02/08 14:19:19;;;;;;;;;;;21.30;99.90;;;;;;5012986;28;19913;-65
2023/02/08 14:21:47;;;;;;;;;;;21.20;99.90;;;;;;5013210;28;19928;-60
2023/02/08 14:24:33;;;;;;;;;;;21.00;99.90;;;;;;5012678;28;19917;-61
2023/02/08 14:27:05;;;;;;;;;;;20.90;99.90;;;;;;5013157;28;20418;-65
2023/02/08 14:29:32;;;;;;;;;;;21.00;99.90;;;;;;5012981;28;19984;-61
2023/02/08 14:31:59;;;;;;;;;;;20.80;99.90;;;;;;5012903;28;19991;-61
2023/02/08 14:34:30;;;;;;;;;;;20.60;99.90;;;;;;5012484;28;19936;-70
2023/02/08 14:37:02;;;;;;;;;;;20.60;99.90;;;;;;5012987;28;19910;-73
2023/02/08 14:39:32;;;;;;;;;;;20.70;99.90;;;;;;5012545;28;20431;-67